Time;durP1;ratioP1;P1;durP2;ratioP2;P2;SDS_P1;SDS_P2;PMS_P1;PMS_P2;Temp;Humidity;BMP_temperature;BMP_pressure;BME280_temperature;BME280_humidity;BME280_pressure;Samples;Min_cycle;Max_cycle;Signal;HPM_P1;HPM_P2
2022/02/27 00:01:04;;;;;;;12.40;4.12;;;;;;;2.04;67.08;100858.83;1706646;83;21001;-72
2022/02/27 00:03:31;;;;;;;8.35;3.52;;;;;;;2.03;67.09;100857.99;1709069;83;21051;-72
2022/02/27 00:06:00;;;;;;;13.88;4.53;;;;;;;2.01;67.18;100857.41;1713230;83;20981;-72
2022/02/27 00:08:29;;;;;;;8.65;4.17;;;;;;;1.99;67.22;100853.25;1707194;83;22553;-72
2022/02/27 00:10:55;;;;;;;9.20;4.50;;;;;;;1.97;67.28;100859.44;1706704;83;21071;-73
2022/02/27 00:13:24;;;;;;;14.40;4.22;;;;;;;1.93;67.44;100854.98;1710989;81;21003;-72
2022/02/27 00:15:51;;;;;;;17.52;4.75;;;;;;;1.89;67.60;100861.44;1709571;82;21103;-73
2022/02/27 00:18:17;;;;;;;11.20;5.12;;;;;;;1.87;67.63;100855.39;1714698;83;21074;-71
2022/02/27 00:20:47;;;;;;;15.90;5.42;;;;;;;1.85;67.60;100862.09;1710712;83;21232;-72
2022/02/27 00:23:14;;;;;;;17.85;6.37;;;;;;;1.80;67.71;100866.34;1706952;82;21454;-73
2022/02/27 00:25:45;;;;;;;14.15;5.37;;;;;;;1.77;67.75;100860.53;1707824;83;21013;-72
2022/02/27 00:28:11;;;;;;;23.38;5.95;;;;;;;1.73;67.96;100860.16;1707984;83;20953;-71
2022/02/27 00:30:42;;;;;;;15.40;5.15;;;;;;;1.74;68.14;100861.80;1683780;83;21057;-73
2022/02/27 00:33:12;;;;;;;17.07;5.87;;;;;;;1.72;68.10;100860.39;1711411;83;21197;-69
2022/02/27 00:35:42;;;;;;;11.80;5.20;;;;;;;1.71;68.04;100859.55;1710734;83;20937;-69
2022/02/27 00:38:14;;;;;;;14.87;5.60;;;;;;;1.72;67.96;100861.23;1711161;82;21016;-71
2022/02/27 00:40:45;;;;;;;18.17;6.08;;;;;;;1.72;67.96;100863.11;1704013;82;20948;-71
2022/02/27 00:43:11;;;;;;;8.93;4.53;;;;;;;1.72;67.91;100869.91;1714528;81;21044;-70
2022/02/27 00:45:47;;;;;;;10.72;5.03;;;;;;;1.68;68.11;100869.52;1706325;83;21528;-70
2022/02/27 00:48:17;;;;;;;14.90;5.95;;;;;;;1.66;68.11;100866.19;1708029;82;21075;-71
2022/02/27 00:50:49;;;;;;;16.10;5.78;;;;;;;1.63;68.14;100868.01;1718699;82;20975;-69
2022/02/27 00:53:23;;;;;;;13.35;5.30;;;;;;;1.59;68.18;100863.55;1711516;81;20980;-71
2022/02/27 00:55:56;;;;;;;21.97;6.25;;;;;;;1.54;68.21;100857.97;1708731;83;20885;-70
2022/02/27 00:58:32;;;;;;;16.15;5.80;;;;;;;1.49;68.34;100857.81;1706145;82;21052;-70
2022/02/27 01:00:59;;;;;;;13.70;5.15;;;;;;;1.43;68.53;100856.30;1708060;82;20925;-70
2022/02/27 01:03:26;;;;;;;16.25;5.92;;;;;;;1.37;68.65;100858.57;1712608;83;21194;-70
2022/02/27 01:05:55;;;;;;;11.10;4.83;;;;;;;1.32;68.74;100856.54;1705856;83;21505;-71
2022/02/27 01:08:24;;;;;;;14.80;5.10;;;;;;;1.28;68.95;100857.22;1707933;83;21474;-71
2022/02/27 01:10:51;;;;;;;10.38;4.92;;;;;;;1.23;69.18;100857.87;1706964;83;21159;-72
2022/02/27 01:13:19;;;;;;;14.58;4.03;;;;;;;1.18;69.33;100855.84;1713166;83;21055;-72
2022/02/27 01:15:58;;;;;;;8.60;3.87;;;;;;;1.12;69.50;100852.67;1706948;83;21043;-68
2022/02/27 01:18:32;;;;;;;18.37;4.62;;;;;;;1.09;69.64;100861.27;1712733;82;21048;-69
2022/02/27 01:21:01;;;;;;;13.48;4.90;;;;;;;1.02;69.80;100857.78;1707624;83;20969;-71
2022/02/27 01:23:27;;;;;;;15.00;4.53;;;;;;;0.94;70.09;100857.52;1706337;83;21488;-68
2022/02/27 01:25:55;;;;;;;13.48;4.08;;;;;;;0.87;70.52;100852.15;1707870;83;20932;-72
2022/02/27 01:28:25;;;;;;;12.68;3.85;;;;;;;0.81;70.77;100850.34;1708998;83;21505;-72
2022/02/27 01:30:56;;;;;;;8.33;3.37;;;;;;;0.76;71.00;100852.88;1706164;83;21057;-74
2022/02/27 01:33:23;;;;;;;9.75;3.62;;;;;;;0.70;71.28;100855.42;1709205;83;21174;-73
2022/02/27 01:35:53;;;;;;;11.63;3.87;;;;;;;0.65;71.61;100845.76;1684303;83;21932;-71
2022/02/27 01:38:26;;;;;;;8.25;4.12;;;;;;;0.64;71.65;100853.61;1712164;83;20929;-70
2022/02/27 01:40:54;;;;;;;8.68;3.80;;;;;;;0.65;71.58;100848.47;1709002;82;21012;-71
2022/02/27 01:43:21;;;;;;;8.70;3.83;;;;;;;0.66;71.48;100846.59;1708297;83;20973;-72
2022/02/27 01:45:55;;;;;;;10.50;3.72;;;;;;;0.65;71.35;100843.59;1707689;83;20976;-72
2022/02/27 01:48:28;;;;;;;9.60;4.00;;;;;;;0.63;71.41;100846.53;1709501;83;21850;-69
2022/02/27 01:50:55;;;;;;;18.60;4.40;;;;;;;0.62;71.38;100840.78;1704665;83;21569;-71
2022/02/27 01:53:26;;;;;;;11.85;4.30;;;;;;;0.60;71.35;100841.00;1713269;82;21034;-72
2022/02/27 01:55:53;;;;;;;10.90;4.30;;;;;;;0.57;71.42;100838.73;1742495;81;21024;-71
2022/02/27 01:58:22;;;;;;;11.88;4.75;;;;;;;0.56;71.52;100841.67;1695096;81;21000;-71
2022/02/27 02:00:49;;;;;;;14.40;4.50;;;;;;;0.53;71.62;100840.77;1734400;81;21554;-69
2022/02/27 02:03:16;;;;;;;9.25;3.92;;;;;;;0.46;72.04;100838.91;1742379;81;21183;-71
2022/02/27 02:05:43;;;;;;;12.07;4.25;;;;;;;0.43;72.28;100838.00;1751460;80;21036;-72
2022/02/27 02:08:10;;;;;;;10.88;3.67;;;;;;;0.42;72.37;100835.51;1740752;81;21533;-70
2022/02/27 02:10:37;;;;;;;10.88;4.10;;;;;;;0.41;72.43;100833.86;1740797;82;21044;-70
2022/02/27 02:13:06;;;;;;;9.93;3.87;;;;;;;0.37;72.57;100833.47;1744192;81;21461;-72
2022/02/27 02:15:34;;;;;;;12.78;4.72;;;;;;;0.36;72.49;100838.56;1720228;81;21032;-69
2022/02/27 02:18:04;;;;;;;13.35;3.85;;;;;;;0.33;72.36;100831.71;1740722;80;21473;-70
2022/02/27 02:26:54;;;;;;;8.85;4.00;;;;;;;0.19;72.45;100839.09;1736487;82;21564;-70
2022/02/27 02:29:23;;;;;;;9.45;3.55;;;;;;;0.16;72.66;100842.25;1736234;82;21052;-71
2022/02/27 02:31:55;;;;;;;8.93;4.08;;;;;;;0.13;72.79;100840.49;1740980;81;21056;-71
2022/02/27 02:34:26;;;;;;;12.30;4.05;;;;;;;0.08;73.27;100846.57;1736149;82;21029;-72
2022/02/27 02:36:57;;;;;;;11.33;4.45;;;;;;;0.01;73.64;100845.25;1739622;81;21436;-73
2022/02/27 02:39:27;;;;;;;9.25;3.95;;;;;;;-0.04;73.65;100847.27;1746020;81;21092;-73
2022/02/27 02:41:58;;;;;;;18.17;5.40;;;;;;;-0.07;73.77;100849.03;1746300;80;21051;-72
2022/02/27 02:44:32;;;;;;;18.67;5.90;;;;;;;-0.11;73.65;100849.17;1744012;80;21005;-70
2022/02/27 02:47:17;;;;;;;16.67;6.20;;;;;;;-0.13;73.52;100852.09;1741305;82;20981;-72
2022/02/27 02:49:45;;;;;;;17.10;4.75;;;;;;;-0.14;73.69;100853.67;1741701;81;21414;-71
2022/02/27 02:52:18;;;;;;;13.65;5.60;;;;;;;-0.15;74.07;100856.89;1738178;80;20977;-69
2022/02/27 02:54:54;;;;;;;13.78;5.20;;;;;;;-0.15;74.17;100858.25;1738992;81;21550;-72
2022/02/27 02:57:25;;;;;;;13.22;4.92;;;;;;;-0.14;74.29;100857.73;1742529;82;20997;-72
2022/02/27 02:59:52;;;;;;;13.08;5.42;;;;;;;-0.13;74.51;100858.03;1736462;82;21120;-72
2022/02/27 03:02:19;;;;;;;15.63;5.08;;;;;;;-0.11;74.65;100863.23;1739148;80;21044;-72
2022/02/27 03:04:45;;;;;;;11.55;4.53;;;;;;;-0.13;74.81;100857.52;1743057;81;21549;-71
2022/02/27 03:07:15;;;;;;;9.40;4.83;;;;;;;-0.12;74.92;100863.78;1733725;82;20926;-70
2022/02/27 03:09:43;;;;;;;13.28;5.50;;;;;;;-0.11;75.15;100860.52;1744715;80;20988;-72
2022/02/27 03:12:10;;;;;;;14.30;5.20;;;;;;;-0.14;75.39;100859.91;1736044;80;20945;-71
2022/02/27 03:14:38;;;;;;;16.27;5.53;;;;;;;-0.14;75.63;100861.26;1742754;81;20925;-72
2022/02/27 03:17:06;;;;;;;12.53;5.53;;;;;;;-0.15;75.87;100863.67;1742461;81;21507;-71
2022/02/27 03:19:38;;;;;;;11.88;5.62;;;;;;;-0.14;75.87;100865.86;1719015;82;20914;-71
2022/02/27 03:22:05;;;;;;;16.82;5.67;;;;;;;-0.11;75.97;100874.08;1734014;82;21009;-71
2022/02/27 03:24:34;;;;;;;14.38;6.37;;;;;;;-0.16;75.96;100870.66;1743446;80;21469;-72
2022/02/27 03:27:06;;;;;;;18.57;5.50;;;;;;;-0.17;76.15;100871.72;1737904;81;21135;-71
2022/02/27 03:29:34;;;;;;;12.55;5.65;;;;;;;-0.17;76.27;100872.53;1742144;81;21150;-71
2022/02/27 03:32:07;;;;;;;10.40;4.60;;;;;;;-0.17;76.35;100871.17;1736319;82;21016;-72
2022/02/27 03:34:34;;;;;;;15.75;6.65;;;;;;;-0.16;76.31;100881.50;1745548;81;20956;-71
2022/02/27 03:37:00;;;;;;;16.27;6.50;;;;;;;-0.16;76.41;100887.77;1742955;81;20986;-72
2022/02/27 03:39:26;;;;;;;11.63;4.97;;;;;;;-0.16;76.62;100880.14;1738139;81;20972;-70
2022/02/27 03:41:54;;;;;;;16.23;6.25;;;;;;;-0.13;76.70;100882.42;1743231;80;21391;-71
2022/02/27 03:44:20;;;;;;;17.52;6.25;;;;;;;-0.08;76.72;100884.48;1738920;81;21525;-73
2022/02/27 03:46:52;;;;;;;12.60;5.58;;;;;;;-0.06;76.73;100883.23;1738788;82;21001;-70
2022/02/27 03:49:19;;;;;;;12.20;5.83;;;;;;;-0.04;76.78;100893.34;1740759;81;20956;-71
2022/02/27 03:51:46;;;;;;;15.63;5.85;;;;;;;-0.06;76.88;100895.43;1742067;80;21017;-71
2022/02/27 03:54:14;;;;;;;17.40;6.97;;;;;;;-0.07;77.09;100895.10;1738175;81;21448;-70
2022/02/27 03:56:40;;;;;;;20.25;6.67;;;;;;;-0.04;77.20;100893.86;1736316;82;21454;-71
2022/02/27 04:09:08;;;;;;;20.27;8.75;;;;;;;0.09;77.62;100899.73;1747014;80;20988;-70
2022/02/27 04:11:35;;;;;;;19.37;7.12;;;;;;;0.15;77.71;100916.51;1734055;82;21095;-71
2022/02/27 04:14:04;;;;;;;19.55;8.15;;;;;;;0.17;77.73;100913.03;1736901;80;20890;-71
2022/02/27 04:16:32;;;;;;;21.30;8.20;;;;;;;0.20;77.70;100912.63;1738633;82;21064;-69
2022/02/27 04:19:03;;;;;;;23.45;9.25;;;;;;;0.22;77.77;100914.58;1740209;81;21068;-72
2022/02/27 04:21:29;;;;;;;26.00;8.98;;;;;;;0.23;77.94;100917.61;1737948;81;22249;-72
2022/02/27 04:23:59;;;;;;;22.05;8.55;;;;;;;0.27;78.06;100919.88;1734422;82;21004;-71
2022/02/27 04:26:26;;;;;;;21.48;9.78;;;;;;;0.30;78.10;100923.00;1736589;82;20939;-72
2022/02/27 04:28:54;;;;;;;18.35;8.98;;;;;;;0.32;78.07;100929.56;1739850;82;21087;-71
2022/02/27 04:31:22;;;;;;;21.90;8.73;;;;;;;0.33;78.18;100932.56;1716972;82;20925;-72
2022/02/27 04:33:48;;;;;;;23.50;8.78;;;;;;;0.36;78.38;100933.48;1743252;82;21117;-71
2022/02/27 04:36:14;;;;;;;20.40;8.75;;;;;;;0.38;78.37;100938.69;1734156;82;21250;-72
2022/02/27 04:38:44;;;;;;;18.90;8.15;;;;;;;0.41;78.43;100939.64;1745619;81;21549;-73
2022/02/27 04:41:18;;;;;;;22.00;8.28;;;;;;;0.45;78.47;100940.33;1736451;82;20981;-71
2022/02/27 04:43:46;;;;;;;24.05;8.68;;;;;;;0.47;78.40;100940.11;1737331;82;21029;-72
2022/02/27 04:46:14;;;;;;;17.32;7.90;;;;;;;0.50;78.42;100942.90;1741378;82;21087;-71
2022/02/27 04:48:42;;;;;;;21.37;8.98;;;;;;;0.52;78.49;100942.16;1734195;82;21195;-71
2022/02/27 04:51:14;;;;;;;19.80;7.72;;;;;;;0.53;78.50;100936.52;1748331;81;21031;-71
2022/02/27 04:53:47;;;;;;;24.27;8.38;;;;;;;0.57;78.47;100939.63;1739879;80;21454;-70
2022/02/27 04:56:14;;;;;;;21.12;8.15;;;;;;;0.58;78.56;100945.38;1737388;82;21006;-71
2022/02/27 04:58:41;;;;;;;20.45;7.87;;;;;;;0.58;78.61;100939.95;1743082;82;21038;-73
2022/02/27 05:01:10;;;;;;;21.55;8.35;;;;;;;0.59;78.70;100940.25;1734830;81;21037;-69
2022/02/27 05:03:40;;;;;;;23.22;8.85;;;;;;;0.64;78.66;100944.50;1677041;85;21467;-72
2022/02/27 05:06:06;;;;;;;17.82;8.00;;;;;;;0.67;78.64;100941.86;1681693;84;21039;-73
2022/02/27 05:08:35;;;;;;;24.45;9.35;;;;;;;0.68;78.66;100944.35;1683924;84;21087;-72
2022/02/27 05:11:01;;;;;;;20.97;9.03;;;;;;;0.71;78.57;100941.23;1678648;84;21545;-72
2022/02/27 05:13:30;;;;;;;19.37;9.55;;;;;;;0.68;78.48;100941.64;1678885;84;21082;-70
2022/02/27 05:15:57;;;;;;;24.07;10.60;;;;;;;0.72;78.67;100943.39;1674258;84;21590;-70
2022/02/27 05:18:26;;;;;;;24.52;10.88;;;;;;;0.77;78.75;100942.22;1682313;83;21034;-70
2022/02/27 05:20:54;;;;;;;29.00;11.15;;;;;;;0.81;78.70;100946.68;1679304;83;21002;-71
2022/02/27 05:23:21;;;;;;;26.27;11.73;;;;;;;0.83;78.68;100941.36;1664916;84;21138;-69
2022/02/27 05:25:49;;;;;;;33.25;13.13;;;;;;;0.88;78.67;100943.41;1676133;85;21002;-70
2022/02/27 05:28:15;;;;;;;27.60;11.12;;;;;;;0.92;78.68;100939.18;1680025;84;21493;-72
2022/02/27 05:30:46;;;;;;;24.57;12.13;;;;;;;0.95;78.63;100938.77;1685935;83;21026;-71
2022/02/27 05:33:17;;;;;;;24.00;12.15;;;;;;;0.99;78.59;100939.67;1677559;84;21018;-71
2022/02/27 05:35:45;;;;;;;28.73;13.00;;;;;;;1.03;78.49;100939.52;1683576;84;21747;-70
2022/02/27 05:38:12;;;;;;;27.30;12.98;;;;;;;1.07;78.36;100946.19;1681111;84;21049;-72
2022/02/27 05:40:44;;;;;;;30.62;13.88;;;;;;;1.10;78.36;100945.73;1710139;83;20950;-72
2022/02/27 05:43:13;;;;;;;25.48;12.55;;;;;;;1.12;78.37;100940.92;1709283;83;20966;-71
2022/02/27 05:45:40;;;;;;;23.57;12.82;;;;;;;1.17;78.34;100946.52;1709323;83;21054;-70
2022/02/27 05:48:10;;;;;;;31.52;13.95;;;;;;;1.21;78.35;100945.00;1704135;83;21050;-72
2022/02/27 05:50:36;;;;;;;31.12;14.40;;;;;;;1.25;78.45;100945.91;1711209;83;20954;-70
2022/02/27 05:53:10;;;;;;;29.00;13.50;;;;;;;1.28;78.48;100949.56;1708903;83;21069;-71
2022/02/27 05:55:42;;;;;;;25.60;13.85;;;;;;;1.32;78.49;100943.46;1705942;82;21095;-70
2022/02/27 05:58:19;;;;;;;20.08;11.85;;;;;;;1.37;78.46;100952.81;1709914;81;20978;-70
2022/02/27 06:00:48;;;;;;;22.87;12.00;;;;;;;1.41;78.36;100950.80;1703403;83;21003;-70
2022/02/27 06:03:22;;;;;;;25.35;12.20;;;;;;;1.43;78.31;100954.66;1703070;83;21050;-71
2022/02/27 06:05:50;;;;;;;25.37;12.73;;;;;;;1.46;78.28;100959.63;1709547;82;21062;-70
2022/02/27 06:08:17;;;;;;;29.65;12.37;;;;;;;1.51;78.40;100957.59;1708524;83;20971;-72
2022/02/27 06:10:43;;;;;;;23.52;11.25;;;;;;;1.53;78.41;100954.97;1707998;83;21062;-73
2022/02/27 06:13:13;;;;;;;24.82;11.20;;;;;;;1.58;78.50;100959.73;1707092;83;21459;-71
2022/02/27 06:15:41;;;;;;;22.40;11.03;;;;;;;1.63;78.44;100954.97;1707472;83;21023;-69
2022/02/27 06:18:08;;;;;;;21.60;11.63;;;;;;;1.68;78.26;100958.69;1708784;83;21014;-73
2022/02/27 06:20:36;;;;;;;30.37;11.93;;;;;;;1.73;78.06;100957.16;1708698;83;21026;-73
2022/02/27 06:23:06;;;;;;;23.20;10.58;;;;;;;1.75;77.66;100956.42;1709336;83;21096;-72
2022/02/27 06:25:33;;;;;;;20.55;9.93;;;;;;;1.77;77.50;100973.34;1738035;81;21511;-70
2022/02/27 06:28:03;;;;;;;28.17;12.28;;;;;;;1.76;77.17;100968.94;1739181;82;20890;-74
2022/02/27 06:30:30;;;;;;;21.77;10.58;;;;;;;1.75;77.09;100968.13;1741055;80;20974;-73
2022/02/27 06:32:57;;;;;;;21.60;10.18;;;;;;;1.76;76.81;100973.86;1735525;82;21044;-73
2022/02/27 06:35:24;;;;;;;26.10;10.23;;;;;;;1.76;76.48;100977.09;1737991;81;20976;-71
2022/02/27 06:37:56;;;;;;;20.52;10.15;;;;;;;1.68;76.05;100967.36;1742557;81;20986;-72
2022/02/27 06:40:29;;;;;;;27.87;10.55;;;;;;;1.58;75.93;100975.52;1727799;82;21585;-73
2022/02/27 06:42:56;;;;;;;28.10;11.83;;;;;;;1.59;76.02;100970.89;1740591;81;21028;-69
2022/02/27 06:45:27;;;;;;;27.95;10.55;;;;;;;1.54;75.63;100970.20;1746461;80;20949;-72
2022/02/27 06:47:54;;;;;;;23.65;10.08;;;;;;;1.46;75.55;100973.22;1742448;80;20953;-72
2022/02/27 06:50:23;;;;;;;19.57;8.65;;;;;;;1.42;75.65;100978.26;1739848;82;21412;-71
2022/02/27 06:52:53;;;;;;;20.02;8.35;;;;;;;1.39;75.34;100974.64;1736986;82;20850;-69
2022/02/27 06:55:24;;;;;;;15.40;7.10;;;;;;;1.39;75.15;100971.08;1736468;80;21612;-71
2022/02/27 06:57:51;;;;;;;21.23;8.80;;;;;;;1.39;74.77;100976.52;1734269;82;21108;-73
2022/02/27 07:00:18;;;;;;;17.95;7.45;;;;;;;1.37;74.68;100982.17;1736197;80;20989;-72
2022/02/27 07:02:54;;;;;;;20.43;6.10;;;;;;;1.39;74.42;100982.78;1736477;82;22160;-72
2022/02/27 07:05:22;;;;;;;11.90;5.62;;;;;;;1.42;74.27;100984.21;1736381;80;21033;-71
2022/02/27 07:07:50;;;;;;;22.15;6.35;;;;;;;1.44;74.04;100983.47;1736902;82;20997;-73
2022/02/27 07:10:20;;;;;;;10.32;5.83;;;;;;;1.44;73.70;100980.23;1740488;81;21326;-71
2022/02/27 07:12:53;;;;;;;16.77;5.42;;;;;;;1.47;73.50;100974.06;1740726;80;21214;-72
2022/02/27 07:15:19;;;;;;;14.53;5.85;;;;;;;1.47;73.16;100977.58;1739486;81;21130;-70
2022/02/27 07:17:46;;;;;;;14.43;6.25;;;;;;;1.48;72.85;100979.78;1737823;82;21010;-70
2022/02/27 07:20:12;;;;;;;13.83;6.25;;;;;;;1.50;73.03;100979.04;1734041;82;20929;-70
2022/02/27 07:26:28;;;;;;;14.55;4.90;;;;;;;1.61;72.21;100980.17;1735786;81;25576;-71
2022/02/27 07:28:58;;;;;;;13.10;5.25;;;;;;;1.67;72.21;100976.58;1742727;81;22166;-72
2022/02/27 07:31:25;;;;;;;10.53;5.70;;;;;;;1.76;72.11;100975.73;1744539;80;20953;-72
2022/02/27 07:33:52;;;;;;;10.95;4.28;;;;;;;1.85;71.52;100971.67;1736820;82;21087;-72
2022/02/27 07:36:19;;;;;;;10.70;4.35;;;;;;;1.90;70.50;100975.91;1719139;82;21553;-70
2022/02/27 07:38:57;;;;;;;12.73;4.85;;;;;;;1.98;69.52;100974.77;1745573;80;21005;-73
2022/02/27 07:41:23;;;;;;;11.30;4.05;;;;;;;2.08;69.07;100974.27;1739613;81;21754;-73
2022/02/27 07:43:51;;;;;;;10.50;4.33;;;;;;;2.23;68.27;100978.47;1738581;82;20918;-73
2022/02/27 07:46:21;;;;;;;6.95;2.60;;;;;;;2.35;67.63;100971.20;1743050;80;21077;-74
2022/02/27 07:48:49;;;;;;;6.60;3.05;;;;;;;2.45;65.61;100973.38;1738548;82;20941;-75
2022/02/27 07:51:20;;;;;;;7.08;2.80;;;;;;;2.55;64.70;100967.38;1733883;82;21545;-74
2022/02/27 07:53:47;;;;;;;6.97;2.65;;;;;;;2.65;64.37;100966.81;1742242;81;21770;-72
2022/02/27 07:56:15;;;;;;;4.72;2.52;;;;;;;2.76;62.76;100975.55;1723616;80;21011;-72
2022/02/27 07:58:44;;;;;;;7.83;2.47;;;;;;;2.85;61.91;100972.52;1744649;81;20996;-72
2022/02/27 08:01:14;;;;;;;4.05;1.27;;;;;;;2.97;60.94;100973.91;1721513;81;20992;-73
2022/02/27 08:03:41;;;;;;;3.72;1.20;;;;;;;3.10;60.37;100971.50;1737716;82;21059;-70
2022/02/27 08:06:07;;;;;;;3.55;1.35;;;;;;;3.23;57.06;100978.09;1736538;82;21795;-70
2022/02/27 08:08:34;;;;;;;6.80;1.02;;;;;;;3.33;55.88;100971.22;1738673;80;20938;-72
2022/02/27 08:11:01;;;;;;;2.98;1.42;;;;;;;3.44;56.20;100967.69;1736501;82;21045;-74
2022/02/27 08:13:29;;;;;;;2.17;1.20;;;;;;;3.60;56.01;100972.95;1737175;80;21104;-69
2022/02/27 08:16:02;;;;;;;4.92;1.70;;;;;;;3.71;55.07;100969.94;1742743;81;21051;-71
2022/02/27 08:18:34;;;;;;;4.65;1.15;;;;;;;3.77;54.47;100966.24;1740671;81;21012;-69
2022/02/27 08:21:06;;;;;;;2.60;1.25;;;;;;;3.86;54.05;100974.89;1742756;81;20930;-73
2022/02/27 08:23:37;;;;;;;2.67;1.42;;;;;;;3.92;54.27;100973.12;1736927;82;21016;-72
2022/02/27 08:26:08;;;;;;;5.15;1.37;;;;;;;4.03;54.34;100963.79;1734382;82;21415;-72
2022/02/27 08:28:41;;;;;;;4.25;1.52;;;;;;;4.16;53.92;100962.69;1740464;81;21048;-72
2022/02/27 08:31:15;;;;;;;4.35;1.57;;;;;;;4.26;53.43;100956.88;1740456;82;21399;-71
2022/02/27 08:33:46;;;;;;;5.50;1.72;;;;;;;4.34;52.52;100961.67;1740229;81;21351;-74
2022/02/27 08:36:17;;;;;;;4.10;1.42;;;;;;;4.43;52.00;100960.23;1749820;80;21173;-70
2022/02/27 08:38:47;;;;;;;3.12;1.20;;;;;;;4.50;50.50;100963.62;1697902;82;21006;-71
2022/02/27 08:57:40;;;;;;;1.72;0.72;;;;;;;4.82;47.86;100943.70;1653859;85;21587;-73
2022/02/27 09:00:10;;;;;;;1.77;1.10;;;;;;;4.94;47.41;100946.38;1649187;85;21549;-75
2022/02/27 09:02:39;;;;;;;1.42;0.80;;;;;;;4.90;46.71;100932.91;1679461;81;21166;-73
2022/02/27 09:05:08;;;;;;;2.25;1.10;;;;;;;4.86;46.49;100932.59;1741485;81;21605;-71
2022/02/27 09:07:36;;;;;;;3.85;1.62;;;;;;;4.87;47.36;100936.44;1736987;81;20938;-74
2022/02/27 09:10:04;;;;;;;3.12;1.07;;;;;;;4.96;48.05;100934.13;1715125;82;21175;-74
2022/02/27 09:12:35;;;;;;;1.92;1.02;;;;;;;5.07;48.18;100931.55;1716004;82;21570;-74
2022/02/27 09:15:01;;;;;;;1.72;1.05;;;;;;;5.21;47.70;100930.68;1685366;83;20982;-73
2022/02/27 09:17:28;;;;;;;1.80;0.75;;;;;;;5.27;46.82;100931.59;1688231;83;21633;-72
2022/02/27 09:20:01;;;;;;;2.10;1.02;;;;;;;5.36;47.18;100934.19;1712846;83;21546;-74
2022/02/27 09:22:40;;;;;;;3.52;1.35;;;;;;;5.57;47.51;100935.33;1681490;83;21630;-72
2022/02/27 09:25:08;;;;;;;3.47;1.10;;;;;;;5.69;45.63;100934.38;1680090;84;21066;-72
2022/02/27 09:27:34;;;;;;;3.75;1.10;;;;;;;5.72;46.07;100933.34;1678804;84;21015;-72
2022/02/27 09:30:03;;;;;;;2.35;1.25;;;;;;;5.79;46.09;100933.69;1677726;84;21057;-72
2022/02/27 09:32:31;;;;;;;2.95;1.05;;;;;;;5.81;44.33;100943.31;1709222;83;21499;-71
2022/02/27 09:34:57;;;;;;;1.45;0.88;;;;;;;5.59;43.98;100940.55;1680622;83;21065;-70
2022/02/27 09:37:28;;;;;;;2.75;1.12;;;;;;;5.48;44.99;100938.19;1707544;83;21959;-72
2022/02/27 09:39:58;;;;;;;2.33;0.90;;;;;;;5.47;45.04;100939.28;1707605;83;20979;-72
2022/02/27 09:42:36;;;;;;;3.95;1.10;;;;;;;5.43;44.80;100939.48;1709429;83;21014;-71
2022/02/27 09:45:07;;;;;;;3.12;1.12;;;;;;;5.48;45.18;100936.82;1706429;83;21101;-73
2022/02/27 09:47:33;;;;;;;0.88;0.60;;;;;;;5.54;43.58;100944.04;1681865;83;21075;-73
2022/02/27 09:50:03;;;;;;;3.30;1.15;;;;;;;5.32;42.94;100938.52;1706287;83;21498;-71
2022/02/27 09:52:32;;;;;;;1.67;0.90;;;;;;;5.04;43.56;100941.08;1684298;83;20947;-72
2022/02/27 09:54:59;;;;;;;1.98;0.90;;;;;;;4.90;43.52;100931.53;1709672;83;21046;-73
2022/02/27 09:57:27;;;;;;;1.37;0.60;;;;;;;4.78;43.82;100935.17;1685541;83;20975;-73
2022/02/27 09:59:57;;;;;;;1.98;0.90;;;;;;;4.69;43.48;100932.02;1684215;83;20962;-72
2022/02/27 10:02:25;;;;;;;7.03;1.20;;;;;;;4.65;44.30;100932.23;1685758;82;21128;-72
2022/02/27 10:04:52;;;;;;;1.25;0.70;;;;;;;4.76;45.09;100927.76;1710260;83;21475;-70
2022/02/27 10:07:21;;;;;;;3.60;1.00;;;;;;;4.99;45.43;100920.50;1709393;83;20958;-72
2022/02/27 10:09:49;;;;;;;2.05;0.80;;;;;;;5.32;45.50;100924.28;1707607;83;21542;-73
2022/02/27 10:12:22;;;;;;;2.27;0.80;;;;;;;5.69;45.46;100916.08;1701950;83;21573;-72
2022/02/27 10:15:08;;;;;;;1.75;0.80;;;;;;;6.04;45.30;100912.66;1708045;83;21144;-74
2022/02/27 10:17:42;;;;;;;1.92;0.60;;;;;;;6.39;44.53;100918.84;1706535;82;21081;-74
2022/02/27 10:23:30;;;;;;;2.40;0.98;;;;;;;6.66;43.21;100918.55;1710700;83;21031;-71
2022/02/27 10:26:01;;;;;;;1.05;0.80;;;;;;;6.57;42.63;100916.28;1707739;83;21027;-73
2022/02/27 10:28:31;;;;;;;3.77;0.80;;;;;;;6.56;42.77;100916.01;1708057;82;20982;-72
2022/02/27 10:31:09;;;;;;;2.02;0.78;;;;;;;6.57;42.41;100914.08;1707512;83;21558;-72
2022/02/27 10:33:44;;;;;;;4.58;1.02;;;;;;;6.61;42.52;100912.48;1703149;83;21550;-73
2022/02/27 10:36:14;;;;;;;1.70;0.82;;;;;;;6.66;41.74;100904.85;1689606;83;21011;-72
2022/02/27 10:42:21;;;;;;;3.80;1.20;;;;;;;6.96;40.25;100912.23;1738666;80;20930;-73
2022/02/27 10:45:07;;;;;;;0.93;0.68;;;;;;;7.05;41.25;100906.01;1740828;80;20940;-69
2022/02/27 10:47:38;;;;;;;1.77;0.93;;;;;;;7.30;40.75;100907.84;1746228;81;21048;-73
2022/02/27 10:50:18;;;;;;;2.40;0.98;;;;;;;7.35;39.46;100904.30;1715995;82;21080;-73
2022/02/27 10:52:50;;;;;;;1.40;0.57;;;;;;;7.28;40.56;100903.16;1714294;82;20997;-74
2022/02/27 10:55:16;;;;;;;4.47;1.20;;;;;;;7.28;40.44;100912.19;1740264;81;21092;-73
2022/02/27 10:57:50;;;;;;;3.33;0.88;;;;;;;7.09;39.49;100915.08;1737284;80;21068;-73
2022/02/27 11:00:30;;;;;;;3.92;1.25;;;;;;;6.90;39.93;100914.94;1718522;81;21536;-73
2022/02/27 11:03:09;;;;;;;2.50;0.82;;;;;;;6.61;38.36;100908.91;1739262;80;21068;-70
2022/02/27 11:05:41;;;;;;;2.22;0.70;;;;;;;6.12;39.17;100910.59;1743714;81;20949;-72
2022/02/27 11:08:12;;;;;;;2.52;1.10;;;;;;;5.90;40.00;100902.64;1734075;82;20843;-71
2022/02/27 11:10:41;;;;;;;1.90;1.00;;;;;;;6.04;40.94;100898.98;1740308;81;20998;-73
2022/02/27 11:13:10;;;;;;;1.77;0.85;;;;;;;6.38;41.34;100898.00;1736340;82;21179;-72
2022/02/27 11:15:41;;;;;;;1.98;1.00;;;;;;;6.72;41.28;100892.04;1740281;81;21076;-72
2022/02/27 11:18:08;;;;;;;3.20;0.95;;;;;;;7.03;41.25;100891.73;1741246;80;20986;-72
2022/02/27 11:20:36;;;;;;;2.47;0.93;;;;;;;7.33;40.69;100893.59;1740124;82;21125;-69
2022/02/27 11:23:07;;;;;;;1.62;0.78;;;;;;;7.56;39.61;100883.28;1736324;82;20883;-72
2022/02/27 11:25:38;;;;;;;2.45;0.72;;;;;;;7.60;37.98;100887.70;1739004;81;20960;-72
2022/02/27 11:28:11;;;;;;;1.37;0.70;;;;;;;7.48;36.97;100883.80;1737306;81;21014;-73
2022/02/27 11:30:43;;;;;;;3.22;0.90;;;;;;;7.26;36.62;100888.34;1738423;81;20975;-73
2022/02/27 11:33:22;;;;;;;2.15;0.85;;;;;;;6.91;37.03;100886.97;1736934;82;20881;-72
2022/02/27 11:36:00;;;;;;;1.22;0.62;;;;;;;6.61;37.61;100887.00;1737356;80;20956;-72
2022/02/27 11:38:37;;;;;;;2.50;0.85;;;;;;;6.69;38.33;100885.16;1745008;81;21488;-70
2022/02/27 11:41:20;;;;;;;2.77;1.42;;;;;;;6.80;38.22;100884.70;1741352;81;20966;-72
2022/02/27 11:43:57;;;;;;;2.98;1.30;;;;;;;6.89;37.59;100896.83;1718638;82;20985;-73
2022/02/27 11:46:40;;;;;;;4.00;1.40;;;;;;;6.76;37.83;100881.66;1742337;80;21543;-73
2022/02/27 11:49:27;;;;;;;3.52;1.60;;;;;;;6.81;36.84;100890.45;1733764;82;20922;-73
2022/02/27 11:52:10;;;;;;;4.53;1.47;;;;;;;6.63;36.59;100880.19;1735924;82;20953;-73
2022/02/27 11:54:51;;;;;;;4.80;1.70;;;;;;;6.62;37.90;100877.72;1740673;80;20993;-73
2022/02/27 11:57:27;;;;;;;2.37;1.10;;;;;;;6.92;38.39;100884.00;1742339;81;21072;-73
2022/02/27 12:03:01;;;;;;;1.82;1.05;;;;;;;7.59;38.55;100875.09;1739074;81;21063;-72
2022/02/27 12:05:44;;;;;;;5.37;1.40;;;;;;;7.95;38.23;100873.05;1741217;81;21462;-69
2022/02/27 12:08:14;;;;;;;2.20;1.10;;;;;;;8.13;37.80;100862.94;1738087;81;21037;-72
2022/02/27 12:10:54;;;;;;;3.65;1.30;;;;;;;8.19;37.38;100860.20;1749969;80;21131;-72
2022/02/27 12:13:28;;;;;;;3.20;1.05;;;;;;;8.12;36.92;100865.96;1734754;82;21146;-73
2022/02/27 12:16:07;;;;;;;2.45;1.50;;;;;;;7.92;36.97;100860.67;1743112;81;20996;-73
2022/02/27 12:18:50;;;;;;;3.35;1.60;;;;;;;7.75;36.99;100864.45;1741319;81;21470;-73
2022/02/27 12:21:23;;;;;;;3.75;1.57;;;;;;;7.55;37.07;100870.67;1733195;82;21572;-72
2022/02/27 12:23:52;;;;;;;6.22;1.67;;;;;;;7.33;36.82;100873.03;1734474;80;20896;-72
2022/02/27 12:26:37;;;;;;;6.00;2.22;;;;;;;7.05;37.24;100860.78;1742769;80;21089;-72